sensor_id;sensor_type;location;lat;lon;timestamp;P1;durP1;ratioP1;P2;durP2;ratioP2
4748;SDS011;2388;53.582;9.962;2022-08-19T00:01:49;10.97;;;7.83;;
4748;SDS011;2388;53.582;9.962;2022-08-19T00:04:16;8.70;;;7.80;;
4748;SDS011;2388;53.582;9.962;2022-08-19T00:06:44;11.40;;;7.33;;
4748;SDS011;2388;53.582;9.962;2022-08-19T00:09:12;9.00;;;7.07;;
4748;SDS011;2388;53.582;9.962;2022-08-19T00:11:40;9.90;;;8.37;;
4748;SDS011;2388;53.582;9.962;2022-08-19T00:14:07;8.57;;;7.50;;
4748;SDS011;2388;53.582;9.962;2022-08-19T00:16:35;7.37;;;6.67;;
4748;SDS011;2388;53.582;9.962;2022-08-19T00:19:01;14.80;;;10.17;;
4748;SDS011;2388;53.582;9.962;2022-08-19T00:21:27;14.10;;;11.90;;
4748;SDS011;2388;53.582;9.962;2022-08-19T00:23:54;18.90;;;14.30;;
4748;SDS011;2388;53.582;9.962;2022-08-19T00:26:22;18.17;;;13.90;;
4748;SDS011;2388;53.582;9.962;2022-08-19T00:28:49;21.53;;;14.57;;
4748;SDS011;2388;53.582;9.962;2022-08-19T00:31:14;22.00;;;15.20;;
4748;SDS011;2388;53.582;9.962;2022-08-19T00:33:41;21.40;;;15.13;;
4748;SDS011;2388;53.582;9.962;2022-08-19T00:36:07;22.33;;;15.97;;
4748;SDS011;2388;53.582;9.962;2022-08-19T00:38:34;25.70;;;18.57;;
4748;SDS011;2388;53.582;9.962;2022-08-19T00:41:01;22.30;;;17.03;;
4748;SDS011;2388;53.582;9.962;2022-08-19T00:43:27;23.57;;;17.50;;
4748;SDS011;2388;53.582;9.962;2022-08-19T00:45:53;26.20;;;17.73;;
4748;SDS011;2388;53.582;9.962;2022-08-19T00:48:19;26.63;;;18.53;;
4748;SDS011;2388;53.582;9.962;2022-08-19T00:50:45;26.90;;;17.90;;
4748;SDS011;2388;53.582;9.962;2022-08-19T00:53:13;28.50;;;19.00;;
4748;SDS011;2388;53.582;9.962;2022-08-19T00:55:43;26.60;;;18.80;;
4748;SDS011;2388;53.582;9.962;2022-08-19T00:58:12;29.23;;;20.90;;
4748;SDS011;2388;53.582;9.962;2022-08-19T01:00:40;31.93;;;20.43;;
4748;SDS011;2388;53.582;9.962;2022-08-19T01:03:07;29.60;;;21.37;;
4748;SDS011;2388;53.582;9.962;2022-08-19T01:05:35;32.00;;;20.83;;
4748;SDS011;2388;53.582;9.962;2022-08-19T01:08:03;25.20;;;19.10;;
4748;SDS011;2388;53.582;9.962;2022-08-19T01:10:31;28.03;;;19.07;;
4748;SDS011;2388;53.582;9.962;2022-08-19T01:13:00;26.47;;;18.60;;
4748;SDS011;2388;53.582;9.962;2022-08-19T01:15:30;26.33;;;17.77;;
4748;SDS011;2388;53.582;9.962;2022-08-19T01:17:58;26.00;;;16.93;;
4748;SDS011;2388;53.582;9.962;2022-08-19T01:20:26;21.23;;;14.90;;
4748;SDS011;2388;53.582;9.962;2022-08-19T01:22:56;28.10;;;17.23;;
4748;SDS011;2388;53.582;9.962;2022-08-19T01:25:27;21.93;;;16.03;;
4748;SDS011;2388;53.582;9.962;2022-08-19T01:27:56;23.17;;;16.10;;
4748;SDS011;2388;53.582;9.962;2022-08-19T01:30:27;17.87;;;14.37;;
4748;SDS011;2388;53.582;9.962;2022-08-19T01:32:56;21.60;;;14.60;;
4748;SDS011;2388;53.582;9.962;2022-08-19T01:35:25;16.57;;;13.50;;
4748;SDS011;2388;53.582;9.962;2022-08-19T01:38:02;23.73;;;13.87;;
4748;SDS011;2388;53.582;9.962;2022-08-19T01:40:32;18.07;;;14.30;;
4748;SDS011;2388;53.582;9.962;2022-08-19T01:43:00;18.10;;;13.97;;
4748;SDS011;2388;53.582;9.962;2022-08-19T01:45:26;18.57;;;15.00;;
4748;SDS011;2388;53.582;9.962;2022-08-19T01:47:53;18.37;;;14.83;;
4748;SDS011;2388;53.582;9.962;2022-08-19T01:50:19;21.00;;;15.20;;
4748;SDS011;2388;53.582;9.962;2022-08-19T01:52:45;24.43;;;17.17;;
4748;SDS011;2388;53.582;9.962;2022-08-19T01:55:13;24.43;;;16.60;;
4748;SDS011;2388;53.582;9.962;2022-08-19T01:57:41;22.70;;;16.77;;
4748;SDS011;2388;53.582;9.962;2022-08-19T02:00:10;28.70;;;17.70;;
4748;SDS011;2388;53.582;9.962;2022-08-19T02:02:37;27.20;;;18.17;;
4748;SDS011;2388;53.582;9.962;2022-08-19T02:05:03;24.80;;;16.77;;
4748;SDS011;2388;53.582;9.962;2022-08-19T02:07:29;22.50;;;15.23;;
4748;SDS011;2388;53.582;9.962;2022-08-19T02:09:54;21.70;;;14.93;;
4748;SDS011;2388;53.582;9.962;2022-08-19T02:12:21;23.70;;;16.40;;
4748;SDS011;2388;53.582;9.962;2022-08-19T02:14:46;23.63;;;16.20;;
4748;SDS011;2388;53.582;9.962;2022-08-19T02:17:12;23.93;;;15.77;;
4748;SDS011;2388;53.582;9.962;2022-08-19T02:19:38;33.37;;;16.60;;
4748;SDS011;2388;53.582;9.962;2022-08-19T02:22:03;25.20;;;17.43;;
4748;SDS011;2388;53.582;9.962;2022-08-19T02:24:29;27.40;;;17.87;;
4748;SDS011;2388;53.582;9.962;2022-08-19T02:26:55;29.53;;;17.70;;
4748;SDS011;2388;53.582;9.962;2022-08-19T02:29:20;26.10;;;17.07;;
4748;SDS011;2388;53.582;9.962;2022-08-19T02:31:46;25.67;;;17.20;;
4748;SDS011;2388;53.582;9.962;2022-08-19T02:34:11;28.43;;;18.43;;
4748;SDS011;2388;53.582;9.962;2022-08-19T02:36:37;24.93;;;16.57;;
4748;SDS011;2388;53.582;9.962;2022-08-19T02:39:03;32.20;;;17.90;;
4748;SDS011;2388;53.582;9.962;2022-08-19T02:41:29;30.37;;;18.70;;
4748;SDS011;2388;53.582;9.962;2022-08-19T02:44:00;24.10;;;15.20;;
4748;SDS011;2388;53.582;9.962;2022-08-19T02:46:29;28.93;;;16.50;;
4748;SDS011;2388;53.582;9.962;2022-08-19T02:49:00;26.60;;;15.17;;
4748;SDS011;2388;53.582;9.962;2022-08-19T02:51:32;27.77;;;16.27;;
4748;SDS011;2388;53.582;9.962;2022-08-19T02:54:00;38.37;;;17.03;;
4748;SDS011;2388;53.582;9.962;2022-08-19T02:56:27;33.23;;;16.63;;
4748;SDS011;2388;53.582;9.962;2022-08-19T02:58:53;30.60;;;17.13;;
4748;SDS011;2388;53.582;9.962;2022-08-19T03:01:24;41.00;;;20.40;;
4748;SDS011;2388;53.582;9.962;2022-08-19T03:03:52;33.60;;;18.40;;
4748;SDS011;2388;53.582;9.962;2022-08-19T03:06:18;39.10;;;18.30;;
4748;SDS011;2388;53.582;9.962;2022-08-19T03:08:45;38.03;;;20.40;;
4748;SDS011;2388;53.582;9.962;2022-08-19T03:11:12;42.40;;;20.67;;
4748;SDS011;2388;53.582;9.962;2022-08-19T03:13:39;44.70;;;24.77;;
4748;SDS011;2388;53.582;9.962;2022-08-19T03:16:05;51.53;;;24.03;;
4748;SDS011;2388;53.582;9.962;2022-08-19T03:18:31;62.77;;;26.70;;
4748;SDS011;2388;53.582;9.962;2022-08-19T03:20:57;51.03;;;24.37;;
4748;SDS011;2388;53.582;9.962;2022-08-19T03:23:23;43.33;;;22.10;;
4748;SDS011;2388;53.582;9.962;2022-08-19T03:25:52;48.87;;;23.80;;
4748;SDS011;2388;53.582;9.962;2022-08-19T03:28:19;47.27;;;23.47;;
4748;SDS011;2388;53.582;9.962;2022-08-19T03:30:56;40.30;;;19.03;;
4748;SDS011;2388;53.582;9.962;2022-08-19T03:33:24;38.03;;;19.13;;
4748;SDS011;2388;53.582;9.962;2022-08-19T03:36:04;39.63;;;18.90;;
4748;SDS011;2388;53.582;9.962;2022-08-19T03:38:36;37.47;;;19.37;;
4748;SDS011;2388;53.582;9.962;2022-08-19T03:41:05;30.23;;;17.93;;
4748;SDS011;2388;53.582;9.962;2022-08-19T03:43:33;35.40;;;19.33;;
4748;SDS011;2388;53.582;9.962;2022-08-19T03:46:04;30.33;;;16.80;;
4748;SDS011;2388;53.582;9.962;2022-08-19T03:48:32;35.23;;;19.07;;
4748;SDS011;2388;53.582;9.962;2022-08-19T03:50:58;32.00;;;16.70;;
4748;SDS011;2388;53.582;9.962;2022-08-19T03:53:25;34.00;;;18.33;;
4748;SDS011;2388;53.582;9.962;2022-08-19T03:55:52;26.10;;;16.57;;
4748;SDS011;2388;53.582;9.962;2022-08-19T03:58:18;29.37;;;16.73;;
4748;SDS011;2388;53.582;9.962;2022-08-19T04:00:44;37.50;;;17.67;;
4748;SDS011;2388;53.582;9.962;2022-08-19T04:03:10;32.53;;;15.93;;
4748;SDS011;2388;53.582;9.962;2022-08-19T04:05:35;24.70;;;16.30;;
4748;SDS011;2388;53.582;9.962;2022-08-19T04:08:03;32.57;;;18.30;;
4748;SDS011;2388;53.582;9.962;2022-08-19T04:10:31;46.03;;;21.37;;
4748;SDS011;2388;53.582;9.962;2022-08-19T04:13:00;42.97;;;18.77;;
4748;SDS011;2388;53.582;9.962;2022-08-19T04:15:25;37.83;;;18.30;;
4748;SDS011;2388;53.582;9.962;2022-08-19T04:17:52;29.40;;;19.53;;
4748;SDS011;2388;53.582;9.962;2022-08-19T04:20:18;41.30;;;19.80;;
4748;SDS011;2388;53.582;9.962;2022-08-19T04:22:43;41.80;;;20.57;;
4748;SDS011;2388;53.582;9.962;2022-08-19T04:25:09;40.23;;;20.07;;
4748;SDS011;2388;53.582;9.962;2022-08-19T04:27:35;37.43;;;19.97;;
4748;SDS011;2388;53.582;9.962;2022-08-19T04:30:00;44.07;;;20.43;;
4748;SDS011;2388;53.582;9.962;2022-08-19T04:32:26;37.87;;;20.13;;
4748;SDS011;2388;53.582;9.962;2022-08-19T04:34:51;43.50;;;21.27;;
4748;SDS011;2388;53.582;9.962;2022-08-19T04:37:17;36.27;;;21.33;;
4748;SDS011;2388;53.582;9.962;2022-08-19T04:39:42;46.30;;;22.00;;
4748;SDS011;2388;53.582;9.962;2022-08-19T04:42:26;38.57;;;21.20;;
4748;SDS011;2388;53.582;9.962;2022-08-19T04:45:08;39.03;;;21.60;;
4748;SDS011;2388;53.582;9.962;2022-08-19T04:47:37;41.00;;;21.70;;
4748;SDS011;2388;53.582;9.962;2022-08-19T04:50:04;42.80;;;22.67;;
4748;SDS011;2388;53.582;9.962;2022-08-19T04:52:30;46.47;;;24.37;;
4748;SDS011;2388;53.582;9.962;2022-08-19T04:54:56;43.17;;;21.40;;
4748;SDS011;2388;53.582;9.962;2022-08-19T04:57:23;43.10;;;21.90;;
4748;SDS011;2388;53.582;9.962;2022-08-19T04:59:49;35.87;;;21.90;;
4748;SDS011;2388;53.582;9.962;2022-08-19T05:02:19;38.80;;;22.90;;
4748;SDS011;2388;53.582;9.962;2022-08-19T05:04:44;31.67;;;22.40;;
4748;SDS011;2388;53.582;9.962;2022-08-19T05:07:10;26.80;;;19.27;;
4748;SDS011;2388;53.582;9.962;2022-08-19T05:09:35;41.37;;;21.50;;
4748;SDS011;2388;53.582;9.962;2022-08-19T05:12:01;29.67;;;18.47;;
4748;SDS011;2388;53.582;9.962;2022-08-19T05:14:26;25.97;;;17.67;;
4748;SDS011;2388;53.582;9.962;2022-08-19T05:16:54;25.40;;;17.57;;
4748;SDS011;2388;53.582;9.962;2022-08-19T05:19:19;41.27;;;19.37;;
4748;SDS011;2388;53.582;9.962;2022-08-19T05:22:03;24.93;;;15.77;;
4748;SDS011;2388;53.582;9.962;2022-08-19T05:24:47;25.70;;;16.43;;
4748;SDS011;2388;53.582;9.962;2022-08-19T05:27:13;21.83;;;15.17;;
4748;SDS011;2388;53.582;9.962;2022-08-19T05:29:38;28.00;;;17.00;;
4748;SDS011;2388;53.582;9.962;2022-08-19T05:32:05;23.03;;;15.17;;
4748;SDS011;2388;53.582;9.962;2022-08-19T05:34:33;20.83;;;14.57;;
4748;SDS011;2388;53.582;9.962;2022-08-19T05:37:00;24.37;;;14.17;;
4748;SDS011;2388;53.582;9.962;2022-08-19T05:39:28;23.83;;;14.37;;
4748;SDS011;2388;53.582;9.962;2022-08-19T05:42:00;20.93;;;13.37;;
4748;SDS011;2388;53.582;9.962;2022-08-19T05:44:29;18.80;;;13.17;;
4748;SDS011;2388;53.582;9.962;2022-08-19T05:46:56;25.03;;;14.00;;
4748;SDS011;2388;53.582;9.962;2022-08-19T05:49:23;18.07;;;14.87;;
4748;SDS011;2388;53.582;9.962;2022-08-19T05:51:50;20.00;;;13.40;;
4748;SDS011;2388;53.582;9.962;2022-08-19T05:54:17;21.80;;;14.67;;
4748;SDS011;2388;53.582;9.962;2022-08-19T05:56:43;19.57;;;13.70;;
4748;SDS011;2388;53.582;9.962;2022-08-19T05:59:12;41.30;;;29.03;;
4748;SDS011;2388;53.582;9.962;2022-08-19T06:01:39;39.33;;;26.03;;
4748;SDS011;2388;53.582;9.962;2022-08-19T06:04:06;17.73;;;14.50;;
4748;SDS011;2388;53.582;9.962;2022-08-19T06:06:32;28.80;;;15.97;;
4748;SDS011;2388;53.582;9.962;2022-08-19T06:08:59;22.40;;;13.90;;
4748;SDS011;2388;53.582;9.962;2022-08-19T06:11:42;19.93;;;13.00;;
4748;SDS011;2388;53.582;9.962;2022-08-19T06:14:19;18.43;;;13.60;;
4748;SDS011;2388;53.582;9.962;2022-08-19T06:16:47;25.70;;;15.27;;
4748;SDS011;2388;53.582;9.962;2022-08-19T06:19:14;20.87;;;14.47;;
4748;SDS011;2388;53.582;9.962;2022-08-19T06:21:48;29.70;;;14.33;;
4748;SDS011;2388;53.582;9.962;2022-08-19T06:24:16;24.90;;;13.93;;
4748;SDS011;2388;53.582;9.962;2022-08-19T06:26:45;24.70;;;15.20;;
4748;SDS011;2388;53.582;9.962;2022-08-19T06:29:12;30.77;;;16.00;;
4748;SDS011;2388;53.582;9.962;2022-08-19T06:31:40;29.63;;;16.63;;
4748;SDS011;2388;53.582;9.962;2022-08-19T06:34:08;25.73;;;16.77;;
4748;SDS011;2388;53.582;9.962;2022-08-19T06:36:39;34.33;;;18.40;;
4748;SDS011;2388;53.582;9.962;2022-08-19T06:39:09;29.50;;;17.03;;
4748;SDS011;2388;53.582;9.962;2022-08-19T06:41:38;29.03;;;16.90;;
4748;SDS011;2388;53.582;9.962;2022-08-19T06:44:06;26.80;;;16.43;;
4748;SDS011;2388;53.582;9.962;2022-08-19T06:46:32;36.27;;;24.03;;
4748;SDS011;2388;53.582;9.962;2022-08-19T06:48:58;60.93;;;37.83;;
4748;SDS011;2388;53.582;9.962;2022-08-19T06:51:25;42.30;;;26.37;;
4748;SDS011;2388;53.582;9.962;2022-08-19T06:53:52;44.43;;;23.80;;
4748;SDS011;2388;53.582;9.962;2022-08-19T06:56:21;46.27;;;25.67;;
4748;SDS011;2388;53.582;9.962;2022-08-19T06:58:49;36.13;;;19.73;;
4748;SDS011;2388;53.582;9.962;2022-08-19T07:01:18;31.80;;;20.20;;
4748;SDS011;2388;53.582;9.962;2022-08-19T07:03:44;23.27;;;16.00;;
4748;SDS011;2388;53.582;9.962;2022-08-19T07:06:11;33.20;;;18.43;;
4748;SDS011;2388;53.582;9.962;2022-08-19T07:08:40;29.50;;;18.10;;
4748;SDS011;2388;53.582;9.962;2022-08-19T07:11:08;23.70;;;14.77;;
4748;SDS011;2388;53.582;9.962;2022-08-19T07:13:34;23.90;;;15.80;;
4748;SDS011;2388;53.582;9.962;2022-08-19T07:16:04;31.67;;;20.63;;
4748;SDS011;2388;53.582;9.962;2022-08-19T07:18:30;49.47;;;33.37;;
4748;SDS011;2388;53.582;9.962;2022-08-19T07:21:10;37.20;;;24.40;;
4748;SDS011;2388;53.582;9.962;2022-08-19T07:23:37;18.70;;;16.23;;
4748;SDS011;2388;53.582;9.962;2022-08-19T07:26:07;19.13;;;12.80;;
4748;SDS011;2388;53.582;9.962;2022-08-19T07:28:34;15.40;;;12.20;;
4748;SDS011;2388;53.582;9.962;2022-08-19T07:31:00;18.10;;;14.10;;
4748;SDS011;2388;53.582;9.962;2022-08-19T07:33:27;14.77;;;11.20;;
4748;SDS011;2388;53.582;9.962;2022-08-19T07:35:52;15.33;;;10.20;;
4748;SDS011;2388;53.582;9.962;2022-08-19T07:38:18;16.33;;;11.60;;
4748;SDS011;2388;53.582;9.962;2022-08-19T07:40:43;14.13;;;9.83;;
4748;SDS011;2388;53.582;9.962;2022-08-19T07:43:11;20.17;;;10.27;;
4748;SDS011;2388;53.582;9.962;2022-08-19T07:45:36;10.63;;;9.50;;
4748;SDS011;2388;53.582;9.962;2022-08-19T07:48:02;11.03;;;8.73;;
4748;SDS011;2388;53.582;9.962;2022-08-19T07:50:28;14.33;;;9.80;;
4748;SDS011;2388;53.582;9.962;2022-08-19T07:52:54;13.70;;;8.90;;
4748;SDS011;2388;53.582;9.962;2022-08-19T07:55:23;9.33;;;8.10;;
4748;SDS011;2388;53.582;9.962;2022-08-19T07:57:50;13.10;;;8.27;;
4748;SDS011;2388;53.582;9.962;2022-08-19T08:00:17;27.23;;;18.80;;
4748;SDS011;2388;53.582;9.962;2022-08-19T08:02:43;27.57;;;21.50;;
4748;SDS011;2388;53.582;9.962;2022-08-19T08:05:09;21.80;;;15.10;;
4748;SDS011;2388;53.582;9.962;2022-08-19T08:07:53;24.17;;;13.80;;
4748;SDS011;2388;53.582;9.962;2022-08-19T08:10:37;13.50;;;10.97;;
4748;SDS011;2388;53.582;9.962;2022-08-19T08:13:02;12.53;;;11.23;;
4748;SDS011;2388;53.582;9.962;2022-08-19T08:15:30;16.63;;;11.73;;
4748;SDS011;2388;53.582;9.962;2022-08-19T08:17:55;21.53;;;9.93;;
4748;SDS011;2388;53.582;9.962;2022-08-19T08:20:22;10.80;;;8.40;;
4748;SDS011;2388;53.582;9.962;2022-08-19T08:22:48;11.43;;;8.47;;
4748;SDS011;2388;53.582;9.962;2022-08-19T08:25:32;18.27;;;8.20;;
4748;SDS011;2388;53.582;9.962;2022-08-19T08:28:00;11.43;;;9.20;;
4748;SDS011;2388;53.582;9.962;2022-08-19T08:30:27;16.67;;;8.90;;
4748;SDS011;2388;53.582;9.962;2022-08-19T08:32:54;16.53;;;10.40;;
4748;SDS011;2388;53.582;9.962;2022-08-19T08:35:21;14.00;;;10.40;;
4748;SDS011;2388;53.582;9.962;2022-08-19T08:37:48;13.73;;;9.57;;
4748;SDS011;2388;53.582;9.962;2022-08-19T08:40:18;17.20;;;11.67;;
4748;SDS011;2388;53.582;9.962;2022-08-19T08:45:43;19.20;;;11.20;;
4748;SDS011;2388;53.582;9.962;2022-08-19T08:48:19;21.73;;;11.43;;
4748;SDS011;2388;53.582;9.962;2022-08-19T08:50:50;18.87;;;13.30;;
4748;SDS011;2388;53.582;9.962;2022-08-19T08:53:18;17.07;;;11.37;;
4748;SDS011;2388;53.582;9.962;2022-08-19T08:55:45;27.67;;;15.13;;
4748;SDS011;2388;53.582;9.962;2022-08-19T08:58:13;37.07;;;21.37;;
4748;SDS011;2388;53.582;9.962;2022-08-19T09:00:46;45.13;;;30.90;;
4748;SDS011;2388;53.582;9.962;2022-08-19T09:03:22;38.43;;;26.47;;
4748;SDS011;2388;53.582;9.962;2022-08-19T09:06:03;31.33;;;17.80;;
4748;SDS011;2388;53.582;9.962;2022-08-19T09:08:33;20.00;;;16.20;;
4748;SDS011;2388;53.582;9.962;2022-08-19T09:11:04;21.27;;;15.10;;
4748;SDS011;2388;53.582;9.962;2022-08-19T09:13:52;17.03;;;12.00;;
4748;SDS011;2388;53.582;9.962;2022-08-19T09:16:23;19.10;;;12.90;;
4748;SDS011;2388;53.582;9.962;2022-08-19T09:18:53;19.47;;;12.90;;
4748;SDS011;2388;53.582;9.962;2022-08-19T09:21:23;21.53;;;12.10;;
4748;SDS011;2388;53.582;9.962;2022-08-19T09:23:50;17.30;;;11.10;;
4748;SDS011;2388;53.582;9.962;2022-08-19T09:26:17;14.43;;;10.57;;
4748;SDS011;2388;53.582;9.962;2022-08-19T09:28:45;20.70;;;11.93;;
4748;SDS011;2388;53.582;9.962;2022-08-19T09:31:12;14.73;;;10.70;;
4748;SDS011;2388;53.582;9.962;2022-08-19T09:33:39;13.43;;;9.77;;
4748;SDS011;2388;53.582;9.962;2022-08-19T09:36:09;15.10;;;10.07;;
4748;SDS011;2388;53.582;9.962;2022-08-19T09:38:37;12.63;;;9.73;;
4748;SDS011;2388;53.582;9.962;2022-08-19T09:41:06;21.23;;;10.00;;
4748;SDS011;2388;53.582;9.962;2022-08-19T09:43:34;11.27;;;9.93;;
4748;SDS011;2388;53.582;9.962;2022-08-19T09:46:01;15.87;;;12.00;;
4748;SDS011;2388;53.582;9.962;2022-08-19T09:48:33;18.80;;;11.73;;
4748;SDS011;2388;53.582;9.962;2022-08-19T09:51:11;17.80;;;13.10;;
4748;SDS011;2388;53.582;9.962;2022-08-19T09:53:40;15.07;;;10.77;;
4748;SDS011;2388;53.582;9.962;2022-08-19T09:56:07;14.60;;;11.90;;
4748;SDS011;2388;53.582;9.962;2022-08-19T09:58:33;17.67;;;12.70;;
4748;SDS011;2388;53.582;9.962;2022-08-19T10:00:59;19.33;;;11.80;;
4748;SDS011;2388;53.582;9.962;2022-08-19T10:03:26;18.80;;;12.77;;
4748;SDS011;2388;53.582;9.962;2022-08-19T10:05:53;21.77;;;13.90;;
4748;SDS011;2388;53.582;9.962;2022-08-19T10:08:20;17.70;;;12.67;;
4748;SDS011;2388;53.582;9.962;2022-08-19T10:10:51;14.37;;;11.63;;
4748;SDS011;2388;53.582;9.962;2022-08-19T10:13:18;20.90;;;14.40;;
4748;SDS011;2388;53.582;9.962;2022-08-19T10:15:48;20.57;;;13.20;;
4748;SDS011;2388;53.582;9.962;2022-08-19T10:18:15;30.63;;;14.70;;
4748;SDS011;2388;53.582;9.962;2022-08-19T10:20:42;20.33;;;13.30;;
4748;SDS011;2388;53.582;9.962;2022-08-19T10:23:10;16.80;;;13.00;;
4748;SDS011;2388;53.582;9.962;2022-08-19T10:25:36;22.00;;;13.30;;
4748;SDS011;2388;53.582;9.962;2022-08-19T10:28:02;19.93;;;15.17;;
4748;SDS011;2388;53.582;9.962;2022-08-19T10:30:28;23.50;;;14.83;;
4748;SDS011;2388;53.582;9.962;2022-08-19T10:32:53;23.40;;;15.67;;
4748;SDS011;2388;53.582;9.962;2022-08-19T10:35:19;20.10;;;12.90;;
4748;SDS011;2388;53.582;9.962;2022-08-19T10:37:45;25.73;;;15.70;;
4748;SDS011;2388;53.582;9.962;2022-08-19T10:40:10;24.30;;;17.93;;
4748;SDS011;2388;53.582;9.962;2022-08-19T10:42:36;24.90;;;16.83;;
4748;SDS011;2388;53.582;9.962;2022-08-19T10:45:03;21.90;;;15.70;;
4748;SDS011;2388;53.582;9.962;2022-08-19T10:47:31;20.27;;;15.30;;
4748;SDS011;2388;53.582;9.962;2022-08-19T10:49:57;31.70;;;24.07;;
4748;SDS011;2388;53.582;9.962;2022-08-19T10:52:42;39.17;;;27.67;;
4748;SDS011;2388;53.582;9.962;2022-08-19T10:55:09;32.57;;;24.00;;
4748;SDS011;2388;53.582;9.962;2022-08-19T10:57:53;24.47;;;18.33;;
4748;SDS011;2388;53.582;9.962;2022-08-19T11:00:19;23.50;;;18.63;;
4748;SDS011;2388;53.582;9.962;2022-08-19T11:02:46;24.37;;;17.03;;
4748;SDS011;2388;53.582;9.962;2022-08-19T11:05:12;33.50;;;22.30;;
4748;SDS011;2388;53.582;9.962;2022-08-19T11:07:39;101.27;;;48.83;;
4748;SDS011;2388;53.582;9.962;2022-08-19T11:10:06;69.40;;;37.57;;
4748;SDS011;2388;53.582;9.962;2022-08-19T11:12:33;48.23;;;27.20;;
4748;SDS011;2388;53.582;9.962;2022-08-19T11:15:01;28.47;;;17.97;;
4748;SDS011;2388;53.582;9.962;2022-08-19T11:17:26;42.13;;;26.50;;
4748;SDS011;2388;53.582;9.962;2022-08-19T11:19:52;25.07;;;16.80;;
4748;SDS011;2388;53.582;9.962;2022-08-19T11:22:17;34.87;;;22.37;;
4748;SDS011;2388;53.582;9.962;2022-08-19T11:24:43;83.30;;;46.90;;
4748;SDS011;2388;53.582;9.962;2022-08-19T11:27:09;45.80;;;24.47;;
4748;SDS011;2388;53.582;9.962;2022-08-19T11:29:37;34.07;;;21.43;;
4748;SDS011;2388;53.582;9.962;2022-08-19T11:32:09;25.43;;;17.70;;
4748;SDS011;2388;53.582;9.962;2022-08-19T11:34:35;28.17;;;17.00;;
4748;SDS011;2388;53.582;9.962;2022-08-19T11:37:02;19.97;;;14.40;;
4748;SDS011;2388;53.582;9.962;2022-08-19T11:39:30;20.60;;;13.80;;
4748;SDS011;2388;53.582;9.962;2022-08-19T11:41:59;21.57;;;13.70;;
4748;SDS011;2388;53.582;9.962;2022-08-19T11:44:27;22.07;;;14.50;;
4748;SDS011;2388;53.582;9.962;2022-08-19T11:46:55;27.67;;;21.80;;
4748;SDS011;2388;53.582;9.962;2022-08-19T11:49:21;21.80;;;17.13;;
4748;SDS011;2388;53.582;9.962;2022-08-19T11:51:46;24.30;;;19.73;;
4748;SDS011;2388;53.582;9.962;2022-08-19T11:54:15;44.73;;;28.50;;
4748;SDS011;2388;53.582;9.962;2022-08-19T11:56:42;23.93;;;19.70;;
4748;SDS011;2388;53.582;9.962;2022-08-19T11:59:08;17.73;;;14.43;;
4748;SDS011;2388;53.582;9.962;2022-08-19T12:01:35;20.73;;;15.50;;
4748;SDS011;2388;53.582;9.962;2022-08-19T12:04:01;20.77;;;14.20;;
4748;SDS011;2388;53.582;9.962;2022-08-19T12:06:31;17.67;;;14.37;;
4748;SDS011;2388;53.582;9.962;2022-08-19T12:09:00;19.93;;;13.90;;
4748;SDS011;2388;53.582;9.962;2022-08-19T12:11:29;22.13;;;15.60;;
4748;SDS011;2388;53.582;9.962;2022-08-19T12:13:55;17.40;;;15.50;;
4748;SDS011;2388;53.582;9.962;2022-08-19T12:16:22;14.33;;;12.83;;
4748;SDS011;2388;53.582;9.962;2022-08-19T12:18:50;17.23;;;12.70;;
4748;SDS011;2388;53.582;9.962;2022-08-19T12:21:17;16.40;;;12.53;;
4748;SDS011;2388;53.582;9.962;2022-08-19T12:23:46;16.73;;;12.80;;
4748;SDS011;2388;53.582;9.962;2022-08-19T12:26:13;17.23;;;11.80;;
4748;SDS011;2388;53.582;9.962;2022-08-19T12:28:39;17.10;;;11.90;;
4748;SDS011;2388;53.582;9.962;2022-08-19T12:31:04;17.07;;;13.03;;
4748;SDS011;2388;53.582;9.962;2022-08-19T12:33:30;19.53;;;13.50;;
4748;SDS011;2388;53.582;9.962;2022-08-19T12:35:59;16.80;;;11.50;;
4748;SDS011;2388;53.582;9.962;2022-08-19T12:38:26;13.10;;;11.27;;
4748;SDS011;2388;53.582;9.962;2022-08-19T12:40:52;16.40;;;11.33;;
4748;SDS011;2388;53.582;9.962;2022-08-19T12:43:17;15.87;;;10.37;;
4748;SDS011;2388;53.582;9.962;2022-08-19T12:45:45;14.37;;;12.83;;
4748;SDS011;2388;53.582;9.962;2022-08-19T12:48:11;13.07;;;10.87;;
4748;SDS011;2388;53.582;9.962;2022-08-19T12:50:39;14.33;;;11.20;;
4748;SDS011;2388;53.582;9.962;2022-08-19T12:53:05;12.77;;;10.83;;
4748;SDS011;2388;53.582;9.962;2022-08-19T12:55:31;15.00;;;11.87;;
4748;SDS011;2388;53.582;9.962;2022-08-19T12:57:56;15.63;;;11.63;;
4748;SDS011;2388;53.582;9.962;2022-08-19T13:00:22;13.90;;;11.00;;
4748;SDS011;2388;53.582;9.962;2022-08-19T13:02:49;14.20;;;11.80;;
4748;SDS011;2388;53.582;9.962;2022-08-19T13:05:17;11.00;;;10.10;;
4748;SDS011;2388;53.582;9.962;2022-08-19T13:07:46;11.83;;;10.40;;
4748;SDS011;2388;53.582;9.962;2022-08-19T13:10:13;12.07;;;10.33;;
4748;SDS011;2388;53.582;9.962;2022-08-19T13:12:41;11.43;;;10.23;;
4748;SDS011;2388;53.582;9.962;2022-08-19T13:15:07;12.20;;;10.23;;
4748;SDS011;2388;53.582;9.962;2022-08-19T13:17:33;11.57;;;10.47;;
4748;SDS011;2388;53.582;9.962;2022-08-19T13:20:00;11.33;;;9.90;;
4748;SDS011;2388;53.582;9.962;2022-08-19T13:22:25;10.77;;;9.87;;
4748;SDS011;2388;53.582;9.962;2022-08-19T13:24:51;14.20;;;11.10;;
4748;SDS011;2388;53.582;9.962;2022-08-19T13:27:17;13.37;;;12.07;;
4748;SDS011;2388;53.582;9.962;2022-08-19T13:29:43;26.20;;;22.17;;
4748;SDS011;2388;53.582;9.962;2022-08-19T13:32:28;45.40;;;38.23;;
4748;SDS011;2388;53.582;9.962;2022-08-19T13:35:13;30.73;;;26.30;;
4748;SDS011;2388;53.582;9.962;2022-08-19T13:37:39;19.43;;;17.33;;
4748;SDS011;2388;53.582;9.962;2022-08-19T13:40:09;22.37;;;17.03;;
4748;SDS011;2388;53.582;9.962;2022-08-19T13:42:41;13.57;;;12.17;;
4748;SDS011;2388;53.582;9.962;2022-08-19T13:45:08;13.93;;;12.53;;
4748;SDS011;2388;53.582;9.962;2022-08-19T13:47:34;16.37;;;13.67;;
4748;SDS011;2388;53.582;9.962;2022-08-19T13:50:03;14.23;;;12.83;;
4748;SDS011;2388;53.582;9.962;2022-08-19T13:52:29;13.13;;;11.20;;
4748;SDS011;2388;53.582;9.962;2022-08-19T13:54:55;13.20;;;11.90;;
4748;SDS011;2388;53.582;9.962;2022-08-19T13:57:21;14.77;;;13.23;;
4748;SDS011;2388;53.582;9.962;2022-08-19T13:59:47;14.57;;;12.80;;
4748;SDS011;2388;53.582;9.962;2022-08-19T14:02:12;13.30;;;11.70;;
4748;SDS011;2388;53.582;9.962;2022-08-19T14:04:38;14.57;;;12.63;;
4748;SDS011;2388;53.582;9.962;2022-08-19T14:07:03;13.50;;;11.20;;
4748;SDS011;2388;53.582;9.962;2022-08-19T14:09:29;12.83;;;11.40;;
4748;SDS011;2388;53.582;9.962;2022-08-19T14:11:55;12.27;;;11.03;;
4748;SDS011;2388;53.582;9.962;2022-08-19T14:14:21;12.87;;;11.53;;
4748;SDS011;2388;53.582;9.962;2022-08-19T14:16:47;12.83;;;11.43;;
4748;SDS011;2388;53.582;9.962;2022-08-19T14:19:13;13.57;;;11.93;;
4748;SDS011;2388;53.582;9.962;2022-08-19T14:21:38;13.37;;;11.90;;
4748;SDS011;2388;53.582;9.962;2022-08-19T14:24:05;13.80;;;11.70;;
4748;SDS011;2388;53.582;9.962;2022-08-19T14:26:31;13.73;;;12.47;;
4748;SDS011;2388;53.582;9.962;2022-08-19T14:28:57;12.60;;;11.30;;
4748;SDS011;2388;53.582;9.962;2022-08-19T14:31:22;15.10;;;12.77;;
4748;SDS011;2388;53.582;9.962;2022-08-19T14:33:48;14.27;;;12.03;;
4748;SDS011;2388;53.582;9.962;2022-08-19T14:36:15;14.13;;;12.80;;
4748;SDS011;2388;53.582;9.962;2022-08-19T14:38:42;16.10;;;12.50;;
4748;SDS011;2388;53.582;9.962;2022-08-19T14:43:41;19.17;;;13.47;;
4748;SDS011;2388;53.582;9.962;2022-08-19T14:46:10;14.87;;;13.33;;
4748;SDS011;2388;53.582;9.962;2022-08-19T14:48:37;15.17;;;11.70;;
4748;SDS011;2388;53.582;9.962;2022-08-19T14:51:03;11.90;;;10.77;;
4748;SDS011;2388;53.582;9.962;2022-08-19T14:53:30;14.07;;;12.70;;
4748;SDS011;2388;53.582;9.962;2022-08-19T14:55:56;14.43;;;12.10;;
4748;SDS011;2388;53.582;9.962;2022-08-19T14:58:21;13.73;;;11.70;;